Extreme high temperature From: 23-07-2018 05:00 Until: 24-07-2018 01:00 warning for: Extreme high temperature Level: Yellow info button
suomi:
Hellevaroitus: Lähivuorokauden aikana on odotettavissa tukalaa hellettä.

svenska:
Varning för värmebölja: Under det närmaste dygnet är den svåra hettan att vänta.

english:
Heat wave warning: Warm weather is expected during the coming 24 hours. 


Thunder radar more information blitzortung!


Löydät sääaseman tiedot myös:

European Weather Network

Finland Weather Exchange

Weather Underground

AWEKAS



Weather Underground säähistoriasivu

Päivittäin yhteenveto Tammikuu 5, 2017 Yksiköt:  Englantilaiset    Metriset   Molemmat
« Edellinen Päivä
Seuraava Päivä »
Päivittäin Viikoittain Kuukausittain Vuosittain Mukautettu
  Korkea: Matala: Keskiarvo:
Lämpötila: TemperatureC °F -21.8 °F -19.1 °F
Kastepiste: DewpointC °F -23.7 °F -20.8 °F
Kosteus: Humidity % 85 % 85 %
Tuulen nopeus: WindSpeedKMH mph 0.0 mph 0 mph
Tuulenpuuska: WindSpeedGustKMH mph - -
Tuuli:- - North
Ilmanpaine: PressurehPa in 1022.9 in -
Sade: 0.0 in    
Historical Graphs
 
 
Taulukkotiedot Tammikuu 5, 2017
Aika Lämpötila Kastepiste Ilmanpaine Tuuli Tuulen nopeus Tuulenpuuska Kosteus Sademäärä (tunneittain)
TemperatureC °F DewpointC °F PressurehPa in Calm     Humidity % HourlyPrecipMM in
00:00 -18.8 °F -20.5 °F 1022.9 in Calm     87 % 0.0 in
00:15 -18.9 °F -20.7 °F 1023.2 in Calm     86 % 0.0 in
00:30 -19.2 °F -21.0 °F 1023.2 in Calm     86 % 0.0 in
00:45 -19.1 °F -20.7 °F 1023.6 in Calm     87 % 0.0 in
01:15 -19.1 °F -20.7 °F 1023.9 in Calm     87 % 0.0 in
01:30 -18.9 °F -20.6 °F 1023.9 in Calm     87 % 0.0 in
01:45 -18.9 °F -20.6 °F 1023.9 in Calm     87 % 0.0 in
02:00 -18.9 °F -20.6 °F 1024.3 in Calm     87 % 0.0 in
02:15 -18.9 °F -20.6 °F 1024.3 in Calm     87 % 0.0 in
02:30 -18.9 °F -20.5 °F 1024.6 in Calm     87 % 0.0 in
02:45 -18.7 °F -20.3 °F 1024.6 in Calm     87 % 0.0 in
03:00 -19.1 °F -20.9 °F 1024.6 in Calm     86 % 0.0 in
03:15 -19.2 °F -20.8 °F 1024.9 in Calm     87 % 0.0 in
03:30 -18.9 °F -20.6 °F 1025.3 in Calm     87 % 0.0 in
03:45 -18.6 °F -20.1 °F 1025.3 in Calm     88 % 0.0 in
04:00 -18.3 °F -19.9 °F 1025.6 in Calm     87 % 0.0 in
04:15 -18.2 °F -19.8 °F 1026.0 in Calm     87 % 0.0 in
04:30 -18.0 °F -19.6 °F 1026.3 in Calm     87 % 0.0 in
04:45 -17.9 °F -19.6 °F 1026.3 in Calm     87 % 0.0 in
05:00 -18.0 °F -19.8 °F 1026.6 in Calm     86 % 0.0 in
05:15 -18.0 °F -19.8 °F 1026.6 in Calm     86 % 0.0 in
05:30 -18.1 °F -19.8 °F 1027.0 in Calm     86 % 0.0 in
05:45 -18.2 °F -20.0 °F 1027.0 in Calm     86 % 0.0 in
06:00 -18.2 °F -19.8 °F 1027.0 in Calm     87 % 0.0 in
06:15 -18.2 °F -20.0 °F 1027.3 in Calm     86 % 0.0 in
06:30 -18.4 °F -20.3 °F 1027.3 in Calm     85 % 0.0 in
06:45 -18.7 °F -20.6 °F 1027.7 in Calm     85 % 0.0 in
07:00 -18.9 °F -20.6 °F 1027.7 in Calm     86 % 0.0 in
07:15 -19.1 °F -21.0 °F 1028.0 in Calm     85 % 0.0 in
07:30 -19.2 °F -21.0 °F 1028.0 in Calm     86 % 0.0 in
07:45 -19.3 °F -21.0 °F 1028.3 in Calm     86 % 0.0 in
08:00 -19.3 °F -21.0 °F 1028.3 in Calm     86 % 0.0 in
08:15 -19.2 °F -21.0 °F 1028.7 in Calm   3.2 mph 86 % 0.0 in
08:30 -19.3 °F -21.0 °F 1029.0 in Calm     86 % 0.0 in
08:45 -19.4 °F -21.1 °F 1029.0 in Calm     86 % 0.0 in
09:00 -19.3 °F -20.9 °F 1029.0 in Calm     87 % 0.0 in
09:15 -19.6 °F -21.4 °F 1029.3 in Calm     85 % 0.0 in
09:30 -19.9 °F -21.8 °F 1029.7 in Calm     85 % 0.0 in
09:45 -20.2 °F -22.1 °F 1030.0 in Calm     85 % 0.0 in
10:00 -20.4 °F -22.1 °F 1030.4 in Calm     86 % 0.0 in
10:15 -20.3 °F -22.1 °F 1030.4 in Calm     86 % 0.0 in
10:30 -20.2 °F -22.0 °F 1030.7 in Calm     86 % 0.0 in
10:45 -20.2 °F -22.0 °F 1030.7 in Calm     86 % 0.0 in
11:00 -20.1 °F -21.7 °F 1031.0 in Calm     87 % 0.0 in
11:15 -19.6 °F -21.1 °F 1031.0 in Calm     88 % 0.0 in
11:30 -19.0 °F -20.5 °F 1031.4 in Calm     88 % 0.0 in
11:45 -18.8 °F -20.4 °F 1031.4 in Calm     87 % 0.0 in
12:00 -18.7 °F -20.3 °F 1031.4 in Calm     87 % 0.0 in
12:15 -18.8 °F -20.6 °F 1031.4 in Calm     86 % 0.0 in
12:30 -18.7 °F -20.3 °F 1031.4 in Calm     87 % 0.0 in
12:45 -18.5 °F -20.1 °F 1031.4 in Calm     87 % 0.0 in
13:00 -18.4 °F -20.0 °F 1031.4 in Calm     87 % 0.0 in
13:15 -18.4 °F -20.0 °F 1031.7 in Calm     87 % 0.0 in
13:30 -18.2 °F -19.7 °F 1031.7 in Calm     88 % 0.0 in
13:45 -18.0 °F -19.6 °F 1031.7 in Calm     87 % 0.0 in
14:00 -17.9 °F -19.6 °F 1031.7 in Calm     87 % 0.0 in
14:15 -17.8 °F -19.5 °F 1032.1 in Calm     87 % 0.0 in
14:30 -17.8 °F -19.5 °F 1032.1 in Calm     87 % 0.0 in
14:45 -17.9 °F -19.6 °F 1032.1 in Calm     87 % 0.0 in
15:00 -18.2 °F -19.9 °F 1032.1 in Calm     86 % 0.0 in
15:15 -18.3 °F -20.0 °F 1032.4 in Calm     87 % 0.0 in
15:30 -18.6 °F -20.4 °F 1032.4 in Calm     86 % 0.0 in
15:45 -18.8 °F -20.6 °F 1032.7 in Calm     86 % 0.0 in
16:00 -19.1 °F -20.8 °F 1032.7 in Calm     86 % 0.0 in
16:15 -19.2 °F -21.0 °F 1032.7 in Calm     86 % 0.0 in
16:30 -19.4 °F -21.1 °F 1032.7 in Calm     86 % 0.0 in
16:45 -19.5 °F -21.2 °F 1033.1 in Calm     86 % 0.0 in
17:00 -19.7 °F -21.4 °F 1033.1 in Calm     86 % 0.0 in
17:15 -19.7 °F -21.3 °F 1033.1 in Calm     87 % 0.0 in
17:30 -19.5 °F -21.1 °F 1033.4 in Calm     87 % 0.0 in
17:45 -19.2 °F -20.7 °F 1033.4 in Calm     88 % 0.0 in
18:00 -18.6 °F -20.0 °F 1033.4 in Calm     89 % 0.0 in
18:15 -18.0 °F -19.4 °F 1033.4 in Calm     89 % 0.0 in
18:30 -18.4 °F -20.2 °F 1033.7 in Calm     86 % 0.0 in
18:45 -19.0 °F -20.9 °F 1033.4 in Calm     85 % 0.0 in
19:00 -19.6 °F -21.4 °F 1033.4 in Calm     85 % 0.0 in
19:15 -19.9 °F -21.8 °F 1033.4 in Calm     85 % 0.0 in
19:30 -20.2 °F -22.1 °F 1033.7 in Calm     85 % 0.0 in
19:45 -20.2 °F -21.9 °F 1033.7 in Calm     86 % 0.0 in
20:00 -20.1 °F -21.8 °F 1033.7 in Calm     86 % 0.0 in
20:15 -20.2 °F -21.9 °F 1033.7 in Calm     86 % 0.0 in
20:30 -20.3 °F -22.2 °F 1034.1 in Calm     85 % 0.0 in
20:45 -20.6 °F -22.5 °F 1034.1 in Calm     85 % 0.0 in
21:00 -20.8 °F -22.5 °F 1034.1 in Calm     86 % 0.0 in
21:15 -20.9 °F -22.8 °F 1034.4 in Calm     85 % 0.0 in
21:30 -21.0 °F -22.9 °F 1034.4 in Calm     85 % 0.0 in
21:45 -20.9 °F -22.6 °F 1034.4 in Calm     86 % 0.0 in
22:00 -20.9 °F -22.8 °F 1034.4 in Calm     85 % 0.0 in
22:15 -21.1 °F -22.9 °F 1034.8 in Calm     85 % 0.0 in
22:30 -21.2 °F -23.0 °F 1034.8 in Calm     85 % 0.0 in
22:45 -21.3 °F -23.2 °F 1034.8 in Calm     85 % 0.0 in
23:00 -21.4 °F -23.2 °F 1034.8 in Calm     85 % 0.0 in
23:15 -21.5 °F -23.3 °F 1034.8 in Calm     85 % 0.0 in
23:30 -21.7 °F -23.5 °F 1035.1 in Calm     85 % 0.0 in
23:45 -21.8 °F -23.7 °F 1034.8 in Calm     85 % 0.0 in
Esan sääasema
Terveisin Weather Underground - 2.75 mb

Alkuperäinen skripti  Jim McMurry - jmcmurry@mwt.net Sovitettu myös templatelle  Wim van der Kuil - Leuven-Template.eu

Laitteet joita käytämme:

Sääasema
Davis VP2

Sääasemaohjelma
Cumulus

Sääaseman tietokone
Asus EeePC

Palveluntarjoaja
Suncomet

Davis VP2

Cumulus

Asus EeePC

Suncomet